sensor_id;sensor_type;location;lat;lon;timestamp;temperature;humidity
22674;DHT22;11504;43.334;21.918;2023-08-12T00:03:17;18.4;100.0
22674;DHT22;11504;43.334;21.918;2023-08-12T00:07:54;18.4;100.0
22674;DHT22;11504;43.334;21.918;2023-08-12T00:12:33;18.4;100.0
22674;DHT22;11504;43.334;21.918;2023-08-12T00:17:11;18.3;100.0
22674;DHT22;11504;43.334;21.918;2023-08-12T00:21:48;18.3;100.0
22674;DHT22;11504;43.334;21.918;2023-08-12T00:26:25;18.3;100.0
22674;DHT22;11504;43.334;21.918;2023-08-12T00:31:02;18.2;100.0
22674;DHT22;11504;43.334;21.918;2023-08-12T00:35:39;18.2;100.0
22674;DHT22;11504;43.334;21.918;2023-08-12T00:40:16;18.0;100.0
22674;DHT22;11504;43.334;21.918;2023-08-12T00:44:52;18.0;100.0
22674;DHT22;11504;43.334;21.918;2023-08-12T00:49:32;17.9;100.0
22674;DHT22;11504;43.334;21.918;2023-08-12T00:54:18;17.9;100.0
22674;DHT22;11504;43.334;21.918;2023-08-12T00:59:04;17.8;100.0
22674;DHT22;11504;43.334;21.918;2023-08-12T01:03:43;17.8;100.0
22674;DHT22;11504;43.334;21.918;2023-08-12T01:08:20;17.6;100.0
22674;DHT22;11504;43.334;21.918;2023-08-12T01:13:32;17.6;100.0
22674;DHT22;11504;43.334;21.918;2023-08-12T01:18:27;17.4;100.0
22674;DHT22;11504;43.334;21.918;2023-08-12T01:23:13;17.4;100.0
22674;DHT22;11504;43.334;21.918;2023-08-12T01:27:50;17.4;100.0
22674;DHT22;11504;43.334;21.918;2023-08-12T01:32:51;17.4;100.0
22674;DHT22;11504;43.334;21.918;2023-08-12T01:37:50;17.4;100.0
22674;DHT22;11504;43.334;21.918;2023-08-12T01:42:35;17.4;100.0
22674;DHT22;11504;43.334;21.918;2023-08-12T01:47:16;17.1;100.0
22674;DHT22;11504;43.334;21.918;2023-08-12T01:51:52;17.1;100.0
22674;DHT22;11504;43.334;21.918;2023-08-12T01:56:29;17.1;100.0
22674;DHT22;11504;43.334;21.918;2023-08-12T02:01:06;16.8;100.0
22674;DHT22;11504;43.334;21.918;2023-08-12T02:05:42;16.8;100.0
22674;DHT22;11504;43.334;21.918;2023-08-12T02:10:18;16.8;100.0
22674;DHT22;11504;43.334;21.918;2023-08-12T02:14:55;16.8;100.0
22674;DHT22;11504;43.334;21.918;2023-08-12T02:19:32;16.7;100.0
22674;DHT22;11504;43.334;21.918;2023-08-12T02:24:09;16.7;100.0
22674;DHT22;11504;43.334;21.918;2023-08-12T02:28:46;16.8;100.0
22674;DHT22;11504;43.334;21.918;2023-08-12T02:33:22;16.8;100.0
22674;DHT22;11504;43.334;21.918;2023-08-12T02:37:59;16.8;100.0
22674;DHT22;11504;43.334;21.918;2023-08-12T02:42:35;16.8;100.0
22674;DHT22;11504;43.334;21.918;2023-08-12T02:47:12;16.6;100.0
22674;DHT22;11504;43.334;21.918;2023-08-12T02:51:48;16.6;100.0
22674;DHT22;11504;43.334;21.918;2023-08-12T02:56:25;16.6;100.0
22674;DHT22;11504;43.334;21.918;2023-08-12T03:01:02;16.5;100.0
22674;DHT22;11504;43.334;21.918;2023-08-12T03:05:39;16.5;100.0
22674;DHT22;11504;43.334;21.918;2023-08-12T03:10:16;16.4;100.0
22674;DHT22;11504;43.334;21.918;2023-08-12T03:14:52;16.4;100.0
22674;DHT22;11504;43.334;21.918;2023-08-12T03:19:29;16.4;100.0
22674;DHT22;11504;43.334;21.918;2023-08-12T03:24:06;16.4;100.0
22674;DHT22;11504;43.334;21.918;2023-08-12T03:28:43;16.2;100.0
22674;DHT22;11504;43.334;21.918;2023-08-12T03:33:20;16.2;100.0
22674;DHT22;11504;43.334;21.918;2023-08-12T03:37:56;16.1;100.0
22674;DHT22;11504;43.334;21.918;2023-08-12T03:42:33;16.1;100.0
22674;DHT22;11504;43.334;21.918;2023-08-12T03:47:10;16.0;100.0
22674;DHT22;11504;43.334;21.918;2023-08-12T03:51:47;16.0;100.0
22674;DHT22;11504;43.334;21.918;2023-08-12T03:56:23;16.0;100.0
22674;DHT22;11504;43.334;21.918;2023-08-12T04:01:00;15.9;100.0
22674;DHT22;11504;43.334;21.918;2023-08-12T04:05:36;15.9;100.0
22674;DHT22;11504;43.334;21.918;2023-08-12T04:10:12;16.0;100.0
22674;DHT22;11504;43.334;21.918;2023-08-12T04:14:49;16.0;100.0
22674;DHT22;11504;43.334;21.918;2023-08-12T04:19:25;16.1;100.0
22674;DHT22;11504;43.334;21.918;2023-08-12T04:24:04;16.1;100.0
22674;DHT22;11504;43.334;21.918;2023-08-12T04:28:42;17.4;100.0
22674;DHT22;11504;43.334;21.918;2023-08-12T04:33:19;17.4;100.0
22674;DHT22;11504;43.334;21.918;2023-08-12T04:37:55;18.7;100.0
22674;DHT22;11504;43.334;21.918;2023-08-12T04:42:32;18.7;100.0
22674;DHT22;11504;43.334;21.918;2023-08-12T04:47:09;22.8;100.0
22674;DHT22;11504;43.334;21.918;2023-08-12T04:51:45;22.8;100.0
22674;DHT22;11504;43.334;21.918;2023-08-12T04:56:24;22.8;100.0
22674;DHT22;11504;43.334;21.918;2023-08-12T05:01:01;27.0;100.0
22674;DHT22;11504;43.334;21.918;2023-08-12T05:05:38;27.0;100.0
22674;DHT22;11504;43.334;21.918;2023-08-12T05:10:16;29.1;100.0
22674;DHT22;11504;43.334;21.918;2023-08-12T05:14:53;29.1;100.0
22674;DHT22;11504;43.334;21.918;2023-08-12T05:19:29;31.2;100.0
22674;DHT22;11504;43.334;21.918;2023-08-12T05:24:08;31.2;100.0
22674;DHT22;11504;43.334;21.918;2023-08-12T05:28:44;32.2;100.0
22674;DHT22;11504;43.334;21.918;2023-08-12T05:33:21;32.2;100.0
22674;DHT22;11504;43.334;21.918;2023-08-12T05:37:58;33.3;100.0
22674;DHT22;11504;43.334;21.918;2023-08-12T05:42:35;33.3;100.0
22674;DHT22;11504;43.334;21.918;2023-08-12T05:47:12;34.2;100.0
22674;DHT22;11504;43.334;21.918;2023-08-12T05:51:48;34.2;100.0
22674;DHT22;11504;43.334;21.918;2023-08-12T05:56:25;34.2;100.0
22674;DHT22;11504;43.334;21.918;2023-08-12T06:01:03;35.0;100.0
22674;DHT22;11504;43.334;21.918;2023-08-12T06:05:45;35.0;100.0
22674;DHT22;11504;43.334;21.918;2023-08-12T06:10:22;35.2;100.0
22674;DHT22;11504;43.334;21.918;2023-08-12T06:14:59;35.2;100.0
22674;DHT22;11504;43.334;21.918;2023-08-12T06:19:36;35.4;100.0
22674;DHT22;11504;43.334;21.918;2023-08-12T06:24:13;35.4;100.0
22674;DHT22;11504;43.334;21.918;2023-08-12T06:28:49;35.2;100.0
22674;DHT22;11504;43.334;21.918;2023-08-12T06:33:26;35.2;100.0
22674;DHT22;11504;43.334;21.918;2023-08-12T06:38:03;35.0;100.0
22674;DHT22;11504;43.334;21.918;2023-08-12T06:42:39;35.0;100.0
22674;DHT22;11504;43.334;21.918;2023-08-12T06:47:16;34.4;100.0
22674;DHT22;11504;43.334;21.918;2023-08-12T06:51:52;34.4;100.0
22674;DHT22;11504;43.334;21.918;2023-08-12T06:56:28;34.4;100.0
22674;DHT22;11504;43.334;21.918;2023-08-12T07:01:05;33.7;100.0
22674;DHT22;11504;43.334;21.918;2023-08-12T07:05:42;33.7;100.0
22674;DHT22;11504;43.334;21.918;2023-08-12T07:10:18;32.9;100.0
22674;DHT22;11504;43.334;21.918;2023-08-12T07:14:55;32.9;100.0
22674;DHT22;11504;43.334;21.918;2023-08-12T07:19:31;32.1;100.0
22674;DHT22;11504;43.334;21.918;2023-08-12T07:24:09;32.1;100.0
22674;DHT22;11504;43.334;21.918;2023-08-12T07:28:45;31.8;100.0
22674;DHT22;11504;43.334;21.918;2023-08-12T07:33:22;31.8;100.0
22674;DHT22;11504;43.334;21.918;2023-08-12T07:37:58;31.6;100.0
22674;DHT22;11504;43.334;21.918;2023-08-12T07:42:35;31.6;100.0
22674;DHT22;11504;43.334;21.918;2023-08-12T07:47:12;31.6;100.0
22674;DHT22;11504;43.334;21.918;2023-08-12T07:51:49;31.6;100.0
22674;DHT22;11504;43.334;21.918;2023-08-12T07:56:25;31.6;100.0
22674;DHT22;11504;43.334;21.918;2023-08-12T08:01:02;31.7;100.0
22674;DHT22;11504;43.334;21.918;2023-08-12T08:05:41;31.7;100.0
22674;DHT22;11504;43.334;21.918;2023-08-12T08:10:17;31.4;100.0
22674;DHT22;11504;43.334;21.918;2023-08-12T08:14:53;31.4;100.0
22674;DHT22;11504;43.334;21.918;2023-08-12T08:19:30;31.2;100.0
22674;DHT22;11504;43.334;21.918;2023-08-12T08:24:07;31.2;100.0
22674;DHT22;11504;43.334;21.918;2023-08-12T08:28:44;31.4;100.0
22674;DHT22;11504;43.334;21.918;2023-08-12T08:33:20;31.4;100.0
22674;DHT22;11504;43.334;21.918;2023-08-12T08:37:57;31.5;100.0
22674;DHT22;11504;43.334;21.918;2023-08-12T08:42:34;31.5;100.0
22674;DHT22;11504;43.334;21.918;2023-08-12T08:47:27;31.6;100.0
22674;DHT22;11504;43.334;21.918;2023-08-12T08:52:04;31.6;100.0
22674;DHT22;11504;43.334;21.918;2023-08-12T08:56:43;31.6;100.0
22674;DHT22;11504;43.334;21.918;2023-08-12T09:01:23;31.7;100.0
22674;DHT22;11504;43.334;21.918;2023-08-12T09:06:00;31.7;100.0
22674;DHT22;11504;43.334;21.918;2023-08-12T09:10:41;32.0;100.0
22674;DHT22;11504;43.334;21.918;2023-08-12T09:15:18;32.0;100.0
22674;DHT22;11504;43.334;21.918;2023-08-12T09:19:55;32.3;100.0
22674;DHT22;11504;43.334;21.918;2023-08-12T09:24:32;32.3;100.0
22674;DHT22;11504;43.334;21.918;2023-08-12T09:29:08;32.3;100.0
22674;DHT22;11504;43.334;21.918;2023-08-12T09:33:45;32.3;100.0
22674;DHT22;11504;43.334;21.918;2023-08-12T09:38:21;32.4;100.0
22674;DHT22;11504;43.334;21.918;2023-08-12T09:42:59;32.4;100.0
22674;DHT22;11504;43.334;21.918;2023-08-12T09:47:37;32.2;100.0
22674;DHT22;11504;43.334;21.918;2023-08-12T09:52:15;32.2;100.0
22674;DHT22;11504;43.334;21.918;2023-08-12T09:57:01;32.2;100.0
22674;DHT22;11504;43.334;21.918;2023-08-12T10:01:50;32.1;100.0
22674;DHT22;11504;43.334;21.918;2023-08-12T10:06:30;32.1;100.0
22674;DHT22;11504;43.334;21.918;2023-08-12T10:11:10;31.8;100.0
22674;DHT22;11504;43.334;21.918;2023-08-12T10:15:51;31.8;100.0
22674;DHT22;11504;43.334;21.918;2023-08-12T10:20:35;31.6;100.0
22674;DHT22;11504;43.334;21.918;2023-08-12T10:25:18;31.6;100.0
22674;DHT22;11504;43.334;21.918;2023-08-12T10:29:57;31.4;100.0
22674;DHT22;11504;43.334;21.918;2023-08-12T10:34:33;31.4;100.0
22674;DHT22;11504;43.334;21.918;2023-08-12T10:39:10;31.1;100.0
22674;DHT22;11504;43.334;21.918;2023-08-12T10:43:59;31.1;100.0
22674;DHT22;11504;43.334;21.918;2023-08-12T10:49:06;31.0;100.0
22674;DHT22;11504;43.334;21.918;2023-08-12T10:53:46;31.0;100.0
22674;DHT22;11504;43.334;21.918;2023-08-12T10:58:46;30.8;100.0
22674;DHT22;11504;43.334;21.918;2023-08-12T11:03:24;30.8;100.0
22674;DHT22;11504;43.334;21.918;2023-08-12T11:08:02;30.4;100.0
22674;DHT22;11504;43.334;21.918;2023-08-12T11:12:56;30.4;100.0
22674;DHT22;11504;43.334;21.918;2023-08-12T11:17:40;30.1;100.0
22674;DHT22;11504;43.334;21.918;2023-08-12T11:22:18;30.1;100.0
22674;DHT22;11504;43.334;21.918;2023-08-12T11:26:56;30.1;100.0
22674;DHT22;11504;43.334;21.918;2023-08-12T11:31:39;29.8;100.0
22674;DHT22;11504;43.334;21.918;2023-08-12T11:36:17;29.8;100.0
22674;DHT22;11504;43.334;21.918;2023-08-12T11:40:53;29.5;100.0
22674;DHT22;11504;43.334;21.918;2023-08-12T11:45:30;29.5;100.0
22674;DHT22;11504;43.334;21.918;2023-08-12T11:50:12;29.4;100.0
22674;DHT22;11504;43.334;21.918;2023-08-12T11:54:51;29.4;100.0
22674;DHT22;11504;43.334;21.918;2023-08-12T11:59:28;29.3;100.0
22674;DHT22;11504;43.334;21.918;2023-08-12T12:04:05;29.3;100.0
22674;DHT22;11504;43.334;21.918;2023-08-12T12:08:41;29.3;100.0
22674;DHT22;11504;43.334;21.918;2023-08-12T12:13:20;29.3;100.0
22674;DHT22;11504;43.334;21.918;2023-08-12T12:17:57;29.3;100.0
22674;DHT22;11504;43.334;21.918;2023-08-12T12:22:35;29.3;100.0
22674;DHT22;11504;43.334;21.918;2023-08-12T12:27:12;29.3;100.0
22674;DHT22;11504;43.334;21.918;2023-08-12T12:31:49;29.3;100.0
22674;DHT22;11504;43.334;21.918;2023-08-12T12:36:26;29.3;100.0
22674;DHT22;11504;43.334;21.918;2023-08-12T12:41:03;29.3;100.0
22674;DHT22;11504;43.334;21.918;2023-08-12T12:45:39;29.3;100.0
22674;DHT22;11504;43.334;21.918;2023-08-12T12:50:16;29.4;100.0
22674;DHT22;11504;43.334;21.918;2023-08-12T12:54:52;29.4;100.0
22674;DHT22;11504;43.334;21.918;2023-08-12T12:59:28;29.4;100.0
22674;DHT22;11504;43.334;21.918;2023-08-12T13:04:06;29.4;100.0
22674;DHT22;11504;43.334;21.918;2023-08-12T13:08:42;29.4;100.0
22674;DHT22;11504;43.334;21.918;2023-08-12T13:13:18;29.4;100.0
22674;DHT22;11504;43.334;21.918;2023-08-12T13:17:55;29.3;100.0
22674;DHT22;11504;43.334;21.918;2023-08-12T13:22:31;29.3;100.0
22674;DHT22;11504;43.334;21.918;2023-08-12T13:27:08;29.3;100.0
22674;DHT22;11504;43.334;21.918;2023-08-12T13:31:44;29.2;100.0
22674;DHT22;11504;43.334;21.918;2023-08-12T13:36:21;29.2;100.0
22674;DHT22;11504;43.334;21.918;2023-08-12T13:40:58;29.2;100.0
22674;DHT22;11504;43.334;21.918;2023-08-12T13:45:35;29.2;100.0
22674;DHT22;11504;43.334;21.918;2023-08-12T13:50:12;29.0;100.0
22674;DHT22;11504;43.334;21.918;2023-08-12T13:54:48;29.0;100.0
22674;DHT22;11504;43.334;21.918;2023-08-12T13:59:24;28.9;100.0
22674;DHT22;11504;43.334;21.918;2023-08-12T14:04:01;28.9;100.0
22674;DHT22;11504;43.334;21.918;2023-08-12T14:08:37;28.8;100.0
22674;DHT22;11504;43.334;21.918;2023-08-12T14:13:13;28.8;100.0
22674;DHT22;11504;43.334;21.918;2023-08-12T14:17:50;28.8;100.0
22674;DHT22;11504;43.334;21.918;2023-08-12T14:22:26;28.8;100.0
22674;DHT22;11504;43.334;21.918;2023-08-12T14:27:03;28.8;100.0
22674;DHT22;11504;43.334;21.918;2023-08-12T14:31:39;28.7;100.0
22674;DHT22;11504;43.334;21.918;2023-08-12T14:36:15;28.7;100.0
22674;DHT22;11504;43.334;21.918;2023-08-12T14:40:51;28.6;100.0
22674;DHT22;11504;43.334;21.918;2023-08-12T14:45:28;28.6;100.0
22674;DHT22;11504;43.334;21.918;2023-08-12T14:50:07;28.5;100.0
22674;DHT22;11504;43.334;21.918;2023-08-12T14:54:44;28.5;100.0
22674;DHT22;11504;43.334;21.918;2023-08-12T14:59:21;28.4;100.0
22674;DHT22;11504;43.334;21.918;2023-08-12T15:03:57;28.4;100.0
22674;DHT22;11504;43.334;21.918;2023-08-12T15:08:34;28.4;100.0
22674;DHT22;11504;43.334;21.918;2023-08-12T15:13:11;28.4;100.0
22674;DHT22;11504;43.334;21.918;2023-08-12T15:31:37;27.9;100.0
22674;DHT22;11504;43.334;21.918;2023-08-12T15:36:14;27.9;100.0
22674;DHT22;11504;43.334;21.918;2023-08-12T15:40:50;27.9;100.0
22674;DHT22;11504;43.334;21.918;2023-08-12T15:45:27;27.9;100.0
22674;DHT22;11504;43.334;21.918;2023-08-12T15:50:07;27.8;100.0
22674;DHT22;11504;43.334;21.918;2023-08-12T15:54:44;27.8;100.0
22674;DHT22;11504;43.334;21.918;2023-08-12T15:59:21;27.8;100.0
22674;DHT22;11504;43.334;21.918;2023-08-12T16:03:58;27.8;100.0
22674;DHT22;11504;43.334;21.918;2023-08-12T16:08:35;27.7;100.0
22674;DHT22;11504;43.334;21.918;2023-08-12T16:13:11;27.7;100.0
22674;DHT22;11504;43.334;21.918;2023-08-12T16:17:48;27.6;100.0
22674;DHT22;11504;43.334;21.918;2023-08-12T16:22:24;27.6;100.0
22674;DHT22;11504;43.334;21.918;2023-08-12T16:27:03;27.6;100.0
22674;DHT22;11504;43.334;21.918;2023-08-12T16:31:40;27.5;100.0
22674;DHT22;11504;43.334;21.918;2023-08-12T16:36:16;27.5;100.0
22674;DHT22;11504;43.334;21.918;2023-08-12T16:40:52;27.4;100.0
22674;DHT22;11504;43.334;21.918;2023-08-12T16:45:29;27.4;100.0
22674;DHT22;11504;43.334;21.918;2023-08-12T16:50:08;27.2;100.0
22674;DHT22;11504;43.334;21.918;2023-08-12T16:54:46;27.2;100.0
22674;DHT22;11504;43.334;21.918;2023-08-12T16:59:24;27.1;100.0
22674;DHT22;11504;43.334;21.918;2023-08-12T17:04:01;27.1;100.0
22674;DHT22;11504;43.334;21.918;2023-08-12T17:08:38;26.9;100.0
22674;DHT22;11504;43.334;21.918;2023-08-12T17:13:14;26.9;100.0
22674;DHT22;11504;43.334;21.918;2023-08-12T17:17:51;26.7;100.0
22674;DHT22;11504;43.334;21.918;2023-08-12T17:22:27;26.7;100.0
22674;DHT22;11504;43.334;21.918;2023-08-12T17:27:04;26.7;100.0
22674;DHT22;11504;43.334;21.918;2023-08-12T17:31:41;26.4;100.0
22674;DHT22;11504;43.334;21.918;2023-08-12T17:36:17;26.4;100.0
22674;DHT22;11504;43.334;21.918;2023-08-12T17:40:54;26.2;100.0
22674;DHT22;11504;43.334;21.918;2023-08-12T17:45:31;26.2;100.0
22674;DHT22;11504;43.334;21.918;2023-08-12T17:50:12;25.9;100.0
22674;DHT22;11504;43.334;21.918;2023-08-12T17:54:48;25.9;100.0
22674;DHT22;11504;43.334;21.918;2023-08-12T17:59:25;25.6;100.0
22674;DHT22;11504;43.334;21.918;2023-08-12T18:04:02;25.6;100.0
22674;DHT22;11504;43.334;21.918;2023-08-12T18:08:38;25.4;100.0
22674;DHT22;11504;43.334;21.918;2023-08-12T18:13:15;25.4;100.0
22674;DHT22;11504;43.334;21.918;2023-08-12T18:17:52;25.1;100.0
22674;DHT22;11504;43.334;21.918;2023-08-12T18:22:29;25.1;100.0
22674;DHT22;11504;43.334;21.918;2023-08-12T18:27:06;25.1;100.0
22674;DHT22;11504;43.334;21.918;2023-08-12T18:31:42;24.8;100.0
22674;DHT22;11504;43.334;21.918;2023-08-12T18:36:18;24.8;100.0
22674;DHT22;11504;43.334;21.918;2023-08-12T18:40:55;24.6;100.0
22674;DHT22;11504;43.334;21.918;2023-08-12T18:45:31;24.6;100.0
22674;DHT22;11504;43.334;21.918;2023-08-12T18:50:09;24.5;100.0
22674;DHT22;11504;43.334;21.918;2023-08-12T18:54:45;24.5;100.0
22674;DHT22;11504;43.334;21.918;2023-08-12T18:59:22;24.3;100.0
22674;DHT22;11504;43.334;21.918;2023-08-12T19:04:00;24.3;100.0
22674;DHT22;11504;43.334;21.918;2023-08-12T19:08:39;24.2;100.0
22674;DHT22;11504;43.334;21.918;2023-08-12T19:13:15;24.2;100.0
22674;DHT22;11504;43.334;21.918;2023-08-12T19:17:52;24.1;100.0
22674;DHT22;11504;43.334;21.918;2023-08-12T19:22:28;24.1;100.0
22674;DHT22;11504;43.334;21.918;2023-08-12T19:27:05;24.1;100.0
22674;DHT22;11504;43.334;21.918;2023-08-12T19:31:41;24.0;100.0
22674;DHT22;11504;43.334;21.918;2023-08-12T19:36:18;24.0;100.0
22674;DHT22;11504;43.334;21.918;2023-08-12T19:40:56;23.9;100.0
22674;DHT22;11504;43.334;21.918;2023-08-12T19:45:33;23.9;100.0
22674;DHT22;11504;43.334;21.918;2023-08-12T19:50:13;23.7;100.0
22674;DHT22;11504;43.334;21.918;2023-08-12T19:54:49;23.7;100.0
22674;DHT22;11504;43.334;21.918;2023-08-12T19:59:25;23.5;100.0
22674;DHT22;11504;43.334;21.918;2023-08-12T20:04:03;23.5;100.0
22674;DHT22;11504;43.334;21.918;2023-08-12T20:08:40;23.3;100.0
22674;DHT22;11504;43.334;21.918;2023-08-12T20:13:16;23.3;100.0
22674;DHT22;11504;43.334;21.918;2023-08-12T20:17:52;23.1;100.0
22674;DHT22;11504;43.334;21.918;2023-08-12T20:22:29;23.1;100.0
22674;DHT22;11504;43.334;21.918;2023-08-12T20:27:05;23.1;100.0
22674;DHT22;11504;43.334;21.918;2023-08-12T20:31:42;23.0;100.0
22674;DHT22;11504;43.334;21.918;2023-08-12T20:36:19;23.0;100.0
22674;DHT22;11504;43.334;21.918;2023-08-12T20:40:56;22.9;100.0
22674;DHT22;11504;43.334;21.918;2023-08-12T20:45:32;22.9;100.0
22674;DHT22;11504;43.334;21.918;2023-08-12T20:50:10;22.7;100.0
22674;DHT22;11504;43.334;21.918;2023-08-12T20:54:50;22.7;100.0
22674;DHT22;11504;43.334;21.918;2023-08-12T20:59:28;22.5;100.0
22674;DHT22;11504;43.334;21.918;2023-08-12T21:04:06;22.5;100.0
22674;DHT22;11504;43.334;21.918;2023-08-12T21:08:43;22.3;100.0
22674;DHT22;11504;43.334;21.918;2023-08-12T21:13:20;22.3;100.0
22674;DHT22;11504;43.334;21.918;2023-08-12T21:17:56;22.1;100.0
22674;DHT22;11504;43.334;21.918;2023-08-12T21:22:33;22.1;100.0
22674;DHT22;11504;43.334;21.918;2023-08-12T21:27:09;22.1;100.0
22674;DHT22;11504;43.334;21.918;2023-08-12T21:31:45;22.0;100.0
22674;DHT22;11504;43.334;21.918;2023-08-12T21:36:22;22.0;100.0
22674;DHT22;11504;43.334;21.918;2023-08-12T21:40:59;21.8;100.0
22674;DHT22;11504;43.334;21.918;2023-08-12T21:45:35;21.8;100.0
22674;DHT22;11504;43.334;21.918;2023-08-12T21:50:12;21.6;100.0
22674;DHT22;11504;43.334;21.918;2023-08-12T21:54:48;21.6;100.0
22674;DHT22;11504;43.334;21.918;2023-08-12T21:59:25;21.3;100.0
22674;DHT22;11504;43.334;21.918;2023-08-12T22:04:02;21.3;100.0
22674;DHT22;11504;43.334;21.918;2023-08-12T22:08:38;21.2;100.0
22674;DHT22;11504;43.334;21.918;2023-08-12T22:13:15;21.2;100.0
22674;DHT22;11504;43.334;21.918;2023-08-12T22:17:52;21.0;100.0
22674;DHT22;11504;43.334;21.918;2023-08-12T22:22:28;21.0;100.0
22674;DHT22;11504;43.334;21.918;2023-08-12T22:27:06;21.0;100.0
22674;DHT22;11504;43.334;21.918;2023-08-12T22:31:42;20.8;100.0
22674;DHT22;11504;43.334;21.918;2023-08-12T22:36:18;20.8;100.0
22674;DHT22;11504;43.334;21.918;2023-08-12T22:40:57;20.7;100.0
22674;DHT22;11504;43.334;21.918;2023-08-12T22:45:43;20.7;100.0
22674;DHT22;11504;43.334;21.918;2023-08-12T22:50:19;20.5;100.0
22674;DHT22;11504;43.334;21.918;2023-08-12T22:54:56;20.5;100.0
22674;DHT22;11504;43.334;21.918;2023-08-12T22:59:33;20.3;100.0
22674;DHT22;11504;43.334;21.918;2023-08-12T23:04:09;20.3;100.0
22674;DHT22;11504;43.334;21.918;2023-08-12T23:08:46;20.1;100.0
22674;DHT22;11504;43.334;21.918;2023-08-12T23:13:23;20.1;100.0
22674;DHT22;11504;43.334;21.918;2023-08-12T23:18:00;19.9;100.0
22674;DHT22;11504;43.334;21.918;2023-08-12T23:22:37;19.9;100.0
22674;DHT22;11504;43.334;21.918;2023-08-12T23:27:13;19.9;100.0
22674;DHT22;11504;43.334;21.918;2023-08-12T23:31:50;19.8;100.0
22674;DHT22;11504;43.334;21.918;2023-08-12T23:36:26;19.8;100.0
22674;DHT22;11504;43.334;21.918;2023-08-12T23:41:07;19.6;100.0
22674;DHT22;11504;43.334;21.918;2023-08-12T23:45:43;19.6;100.0
22674;DHT22;11504;43.334;21.918;2023-08-12T23:50:20;19.6;100.0
22674;DHT22;11504;43.334;21.918;2023-08-12T23:54:56;19.6;100.0
22674;DHT22;11504;43.334;21.918;2023-08-12T23:59:33;19.5;100.0
